Time;durP1;ratioP1;P1;durP2;ratioP2;P2;SDS_P1;SDS_P2;PMS_P1;PMS_P2;Temp;Humidity;BMP_temperature;BMP_pressure;BME280_temperature;BME280_humidity;BME280_pressure;Samples;Min_cycle;Max_cycle;Signal;HPM_P1;HPM_P2
2022/12/28 00:02:08;;;;;;;24.75;13.52;;;;;;;;;;5155671;27;20051;-68
2022/12/28 00:04:33;;;;;;;24.65;14.13;;;;;;;;;;5155306;27;20530;-67
2022/12/28 00:06:59;;;;;;;19.50;12.23;;;;;;;;;;5155473;27;20025;-67
2022/12/28 00:09:24;;;;;;;21.75;12.48;;;;;;;;;;5155316;27;20076;-69
2022/12/28 00:11:50;;;;;;;15.68;9.77;;;;;;;;;;5155414;27;20030;-69
2022/12/28 00:14:15;;;;;;;14.77;9.85;;;;;;;;;;5155185;27;20071;-67
2022/12/28 00:16:41;;;;;;;14.38;9.57;;;;;;;;;;5155510;27;20015;-68
2022/12/28 00:19:15;;;;;;;18.63;10.50;;;;;;;;;;5155354;27;20018;-68
2022/12/28 00:21:41;;;;;;;16.17;10.07;;;;;;;;;;5154211;27;20019;-68
2022/12/28 00:24:07;;;;;;;32.00;10.38;;;;;;;;;;5155051;27;20018;-67
2022/12/28 00:26:34;;;;;;;18.25;9.82;;;;;;;;;;5155294;27;20034;-68
2022/12/28 00:29:00;;;;;;;30.45;10.38;;;;;;;;;;5155460;27;20090;-68
2022/12/28 00:31:26;;;;;;;20.85;10.55;;;;;;;;;;5155538;27;20458;-67
2022/12/28 00:33:51;;;;;;;23.98;10.40;;;;;;;;;;5154874;27;20052;-68
2022/12/28 00:36:17;;;;;;;18.40;9.82;;;;;;;;;;5155206;27;20518;-68
2022/12/28 00:38:43;;;;;;;16.23;9.40;;;;;;;;;;5155069;27;20079;-69
2022/12/28 00:41:09;;;;;;;15.68;8.48;;;;;;;;;;5154984;27;20022;-68
2022/12/28 00:43:35;;;;;;;14.95;8.38;;;;;;;;;;5153091;27;20083;-69
2022/12/28 00:46:01;;;;;;;13.70;8.52;;;;;;;;;;5154573;27;20069;-68
2022/12/28 00:48:26;;;;;;;15.15;8.40;;;;;;;;;;5154620;27;20058;-68
2022/12/28 00:50:59;;;;;;;13.65;8.05;;;;;;;;;;5154796;27;20054;-67
2022/12/28 00:53:24;;;;;;;11.13;7.57;;;;;;;;;;5154507;27;20402;-69
2022/12/28 00:55:50;;;;;;;13.00;7.93;;;;;;;;;;5154696;27;20030;-67
2022/12/28 00:58:15;;;;;;;12.68;8.00;;;;;;;;;;5154490;27;20110;-69
2022/12/28 01:00:40;;;;;;;10.75;7.63;;;;;;;;;;5154503;27;20019;-68
2022/12/28 01:03:06;;;;;;;13.07;8.13;;;;;;;;;;5153973;27;20440;-69
2022/12/28 01:05:31;;;;;;;11.63;7.88;;;;;;;;;;5154210;27;20027;-68
2022/12/28 01:07:57;;;;;;;12.05;8.00;;;;;;;;;;5153504;27;20026;-68
2022/12/28 01:10:22;;;;;;;11.45;7.68;;;;;;;;;;5154311;27;20019;-68
2022/12/28 01:12:47;;;;;;;11.35;7.50;;;;;;;;;;5153354;27;20031;-69
2022/12/28 01:15:13;;;;;;;12.23;7.78;;;;;;;;;;5154313;27;20022;-76
2022/12/28 01:17:41;;;;;;;13.82;8.18;;;;;;;;;;5154100;27;20061;-69
2022/12/28 01:20:07;;;;;;;11.50;8.35;;;;;;;;;;5154015;27;20138;-68
2022/12/28 01:22:33;;;;;;;11.45;8.05;;;;;;;;;;5154024;27;20464;-71
2022/12/28 01:24:58;;;;;;;12.25;8.60;;;;;;;;;;5152733;27;20031;-73
2022/12/28 01:27:24;;;;;;;12.20;8.15;;;;;;;;;;5154108;27;20062;-69
2022/12/28 01:29:49;;;;;;;9.48;7.43;;;;;;;;;;5154163;27;20094;-70
2022/12/28 01:32:14;;;;;;;11.45;7.93;;;;;;;;;;5160365;27;20029;-75
2022/12/28 01:34:40;;;;;;;10.63;7.53;;;;;;;;;;5163987;27;20039;-69
2022/12/28 01:37:05;;;;;;;10.60;7.40;;;;;;;;;;5158166;27;20037;-75
2022/12/28 01:39:31;;;;;;;12.18;8.18;;;;;;;;;;5154104;27;20027;-71
2022/12/28 01:41:56;;;;;;;11.80;8.32;;;;;;;;;;5153793;27;20056;-69
2022/12/28 01:44:24;;;;;;;11.35;8.00;;;;;;;;;;5152158;27;20046;-76
2022/12/28 01:46:55;;;;;;;10.68;7.70;;;;;;;;;;5153822;27;20038;-76
2022/12/28 01:49:27;;;;;;;11.60;8.00;;;;;;;;;;5153582;27;20019;-72
2022/12/28 01:52:12;;;;;;;10.93;7.55;;;;;;;;;;5153668;27;20071;-76
2022/12/28 01:55:05;;;;;;;10.05;7.60;;;;;;;;;;5153040;27;20283;-77
2022/12/28 01:57:36;;;;;;;13.15;7.57;;;;;;;;;;5153502;27;20677;-76
2022/12/28 02:00:14;;;;;;;10.52;7.50;;;;;;;;;;5151896;27;20014;-73
2022/12/28 02:02:47;;;;;;;10.20;6.80;;;;;;;;;;5153274;27;20026;-72
2022/12/28 02:05:14;;;;;;;10.10;7.10;;;;;;;;;;5153371;27;20428;-77
2022/12/28 02:07:53;;;;;;;10.93;7.20;;;;;;;;;;5153814;27;20022;-73
2022/12/28 02:10:19;;;;;;;11.75;7.18;;;;;;;;;;5151972;27;20019;-68
2022/12/28 02:12:45;;;;;;;11.40;7.30;;;;;;;;;;5153063;27;20026;-68
2022/12/28 02:15:11;;;;;;;10.60;7.53;;;;;;;;;;5152905;27;20026;-69
2022/12/28 02:17:36;;;;;;;11.77;7.68;;;;;;;;;;5153088;27;20092;-72
2022/12/28 02:20:03;;;;;;;11.13;7.75;;;;;;;;;;5152617;27;20537;-67
2022/12/28 02:22:51;;;;;;;11.55;7.50;;;;;;;;;;5152928;27;20015;-70
2022/12/28 02:25:46;;;;;;;11.55;7.30;;;;;;;;;;5152684;27;20413;-70
2022/12/28 02:28:39;;;;;;;11.40;7.30;;;;;;;;;;5129466;27;20394;-75
2022/12/28 02:31:19;;;;;;;10.20;7.07;;;;;;;;;;5152559;27;20033;-74
2022/12/28 02:33:54;;;;;;;;;;;;;;;;;;5152984;27;20027;-76
2022/12/28 02:36:33;;;;;;;9.90;7.10;;;;;;;;;;5152798;27;20381;-75
2022/12/28 02:39:07;;;;;;;11.80;7.43;;;;;;;;;;5152852;27;20019;-72
2022/12/28 02:41:33;;;;;;;14.00;8.00;;;;;;;;;;5152514;27;20359;-74
2022/12/28 02:44:00;;;;;;;13.50;8.43;;;;;;;;;;5152243;27;20420;-76
2022/12/28 02:52:39;;;;;;;11.95;8.07;;;;;;;;;;5152586;27;20083;-74
2022/12/28 02:58:48;;;;;;;11.85;7.80;;;;;;;;;;5152629;27;20033;-76
2022/12/28 03:01:45;;;;;;;13.35;8.07;;;;;;;;;;5152492;27;20508;-72
2022/12/28 03:04:38;;;;;;;11.98;7.93;;;;;;;;;;5143138;27;20094;-74
2022/12/28 03:10:11;;;;;;;11.60;7.90;;;;;;;;;;5152529;27;20507;-68
2022/12/28 03:12:47;;;;;;;11.63;7.82;;;;;;;;;;5152318;27;20155;-68
2022/12/28 03:15:28;;;;;;;10.88;8.10;;;;;;;;;;5151904;27;20422;-68
2022/12/28 03:31:52;;;;;;;10.55;7.30;;;;;;;;;;5153717;27;20084;-72
2022/12/28 03:34:18;;;;;;;10.98;7.20;;;;;;;;;;5155947;27;20018;-68
2022/12/28 03:36:58;;;;;;;11.85;7.20;;;;;;;;;;5156288;27;20023;-67
2022/12/28 03:39:33;;;;;;;;;;;;;;;;;;5155141;27;20027;-69
2022/12/28 03:45:32;;;;;;;12.77;7.10;;;;;;;;;;5155998;27;20056;-71
2022/12/28 03:48:00;;;;;;;11.07;7.25;;;;;;;;;;5156010;27;20034;-72
2022/12/28 03:50:25;;;;;;;11.77;6.82;;;;;;;;;;5155937;27;20025;-74
2022/12/28 03:52:51;;;;;;;9.88;7.00;;;;;;;;;;5155996;27;20027;-68
2022/12/28 03:55:17;;;;;;;9.10;6.40;;;;;;;;;;5155725;27;20026;-69
2022/12/28 03:57:42;;;;;;;10.10;7.05;;;;;;;;;;5155639;27;20026;-69
2022/12/28 04:00:09;;;;;;;11.40;7.57;;;;;;;;;;5155691;27;20397;-76
2022/12/28 04:02:36;;;;;;;10.77;7.22;;;;;;;;;;5155564;27;20387;-75
2022/12/28 04:05:01;;;;;;;10.40;7.53;;;;;;;;;;5154062;27;20060;-75
2022/12/28 04:07:27;;;;;;;11.77;7.25;;;;;;;;;;5155656;27;20031;-78
2022/12/28 04:09:52;;;;;;;10.30;6.95;;;;;;;;;;5155574;27;20057;-76
2022/12/28 04:12:17;;;;;;;11.20;6.97;;;;;;;;;;5155609;27;20033;-74
2022/12/28 04:14:43;;;;;;;12.45;6.78;;;;;;;;;;5156641;27;20037;-75
2022/12/28 04:17:08;;;;;;;12.30;7.40;;;;;;;;;;5162795;27;20105;-74
2022/12/28 04:19:34;;;;;;;11.50;7.20;;;;;;;;;;5157829;27;20027;-75
2022/12/28 04:21:59;;;;;;;10.05;6.80;;;;;;;;;;5156965;27;20079;-73
2022/12/28 04:24:24;;;;;;;12.30;7.13;;;;;;;;;;5156177;27;20030;-76
2022/12/28 04:26:50;;;;;;;9.38;6.30;;;;;;;;;;5156395;27;20083;-77
2022/12/28 04:29:15;;;;;;;11.60;7.43;;;;;;;;;;5155050;27;20633;-77
2022/12/28 04:31:41;;;;;;;10.07;6.80;;;;;;;;;;5155044;27;20026;-74
2022/12/28 04:34:06;;;;;;;12.18;6.72;;;;;;;;;;5154787;27;20385;-74
2022/12/28 04:36:32;;;;;;;10.60;6.30;;;;;;;;;;5154820;27;20490;-75
2022/12/28 04:38:58;;;;;;;14.15;6.93;;;;;;;;;;5155159;27;20027;-77
2022/12/28 04:41:24;;;;;;;10.23;6.78;;;;;;;;;;5154942;27;20532;-76
2022/12/28 04:43:49;;;;;;;9.88;6.43;;;;;;;;;;5154683;27;20038;-74
2022/12/28 04:46:16;;;;;;;10.15;6.30;;;;;;;;;;5154745;27;20114;-75
2022/12/28 04:48:42;;;;;;;10.75;6.70;;;;;;;;;;5154487;27;20513;-76
2022/12/28 04:51:11;;;;;;;11.32;6.30;;;;;;;;;;5154967;27;20034;-76
2022/12/28 04:53:40;;;;;;;8.93;6.07;;;;;;;;;;5154636;27;20087;-76
2022/12/28 04:56:06;;;;;;;8.93;6.00;;;;;;;;;;5153175;27;20029;-76
2022/12/28 04:58:32;;;;;;;9.50;6.35;;;;;;;;;;5154860;27;20066;-75
2022/12/28 05:01:05;;;;;;;8.95;6.20;;;;;;;;;;5154724;27;20090;-76
2022/12/28 05:03:31;;;;;;;9.85;6.30;;;;;;;;;;5154351;27;20109;-76
2022/12/28 05:06:01;;;;;;;10.77;6.75;;;;;;;;;;5154102;27;20106;-76
2022/12/28 05:08:27;;;;;;;9.60;6.43;;;;;;;;;;5153054;27;20022;-76
2022/12/28 05:10:52;;;;;;;8.77;6.13;;;;;;;;;;5154416;27;20386;-76
2022/12/28 05:13:18;;;;;;;9.40;6.30;;;;;;;;;;5154491;27;20179;-75
2022/12/28 05:15:43;;;;;;;9.18;6.07;;;;;;;;;;5154225;27;20031;-76
2022/12/28 05:18:08;;;;;;;9.95;6.40;;;;;;;;;;5154241;27;20014;-76
2022/12/28 05:20:34;;;;;;;10.93;6.30;;;;;;;;;;5154226;27;20534;-68
2022/12/28 05:22:59;;;;;;;11.05;6.78;;;;;;;;;;5154184;27;20019;-74
2022/12/28 05:25:24;;;;;;;12.60;6.43;;;;;;;;;;5153642;27;20018;-76
2022/12/28 05:27:50;;;;;;;9.40;6.55;;;;;;;;;;5153989;27;20423;-69
2022/12/28 05:30:15;;;;;;;9.88;6.93;;;;;;;;;;5153821;27;20014;-72
2022/12/28 05:32:41;;;;;;;10.00;7.00;;;;;;;;;;5154034;27;20030;-68
2022/12/28 05:35:07;;;;;;;10.70;7.20;;;;;;;;;;5153646;27;20026;-68
2022/12/28 05:37:32;;;;;;;9.25;6.72;;;;;;;;;;5153916;27;20113;-69
2022/12/28 05:39:57;;;;;;;9.55;6.32;;;;;;;;;;5153766;27;20102;-68
2022/12/28 05:42:23;;;;;;;9.60;6.05;;;;;;;;;;5153329;27;20101;-70
2022/12/28 05:44:48;;;;;;;11.15;5.70;;;;;;;;;;5153321;27;20035;-68
2022/12/28 05:47:13;;;;;;;9.02;5.72;;;;;;;;;;5153477;27;20058;-70
2022/12/28 05:49:39;;;;;;;8.80;5.85;;;;;;;;;;5153621;27;20034;-70
2022/12/28 05:52:04;;;;;;;10.02;5.85;;;;;;;;;;5153692;27;20038;-67
2022/12/28 05:54:30;;;;;;;8.48;5.53;;;;;;;;;;5152837;27;20023;-68
2022/12/28 05:56:55;;;;;;;8.35;5.10;;;;;;;;;;5153468;27;20079;-69
2022/12/28 05:59:20;;;;;;;8.48;5.15;;;;;;;;;;5153468;27;20581;-69
2022/12/28 06:01:46;;;;;;;8.57;4.88;;;;;;;;;;5153281;27;20030;-68
2022/12/28 06:04:17;;;;;;;8.20;5.13;;;;;;;;;;5152913;27;20026;-71
2022/12/28 06:06:43;;;;;;;7.82;5.07;;;;;;;;;;5153085;27;20660;-72
2022/12/28 06:09:09;;;;;;;8.23;4.78;;;;;;;;;;5153625;27;20351;-69
2022/12/28 06:11:35;;;;;;;6.85;4.78;;;;;;;;;;5153207;27;20519;-69
2022/12/28 06:14:02;;;;;;;8.98;5.25;;;;;;;;;;5153172;27;20031;-77
2022/12/28 06:16:30;;;;;;;10.50;5.18;;;;;;;;;;5152642;27;20075;-73
2022/12/28 06:18:56;;;;;;;8.25;5.38;;;;;;;;;;5152750;27;20027;-75
2022/12/28 06:21:24;;;;;;;7.13;4.88;;;;;;;;;;5152932;27;20061;-76
2022/12/28 06:23:51;;;;;;;7.82;4.90;;;;;;;;;;5153038;27;20118;-77
2022/12/28 06:26:19;;;;;;;9.30;4.90;;;;;;;;;;5152612;27;20063;-68
2022/12/28 06:28:45;;;;;;;8.68;5.10;;;;;;;;;;5153019;27;20019;-70
2022/12/28 06:31:14;;;;;;;7.28;5.03;;;;;;;;;;5152764;27;20031;-69
2022/12/28 06:33:40;;;;;;;8.55;5.25;;;;;;;;;;5152634;27;20088;-69
2022/12/28 06:36:14;;;;;;;8.00;4.97;;;;;;;;;;5152411;27;20026;-68
2022/12/28 06:38:39;;;;;;;7.72;5.03;;;;;;;;;;5152573;27;20595;-71
2022/12/28 06:41:06;;;;;;;7.93;5.00;;;;;;;;;;5152554;27;20073;-69
2022/12/28 06:43:33;;;;;;;7.68;4.97;;;;;;;;;;5152584;27;20069;-68
2022/12/28 06:45:59;;;;;;;9.38;5.53;;;;;;;;;;5152333;27;20026;-75
2022/12/28 06:48:25;;;;;;;9.15;5.55;;;;;;;;;;5152488;27;20419;-70
2022/12/28 06:50:58;;;;;;;9.25;5.30;;;;;;;;;;5152563;27;20097;-68
2022/12/28 06:53:26;;;;;;;9.32;5.05;;;;;;;;;;5152376;27;20076;-71
2022/12/28 06:55:57;;;;;;;8.93;5.47;;;;;;;;;;5152381;27;20034;-68
2022/12/28 06:58:24;;;;;;;9.30;5.72;;;;;;;;;;5152493;27;20023;-68
2022/12/28 07:00:50;;;;;;;8.05;5.15;;;;;;;;;;5152838;27;20094;-68
2022/12/28 07:03:16;;;;;;;8.88;5.50;;;;;;;;;;5152036;27;20018;-68
2022/12/28 07:05:41;;;;;;;8.60;5.47;;;;;;;;;;5162885;27;20027;-69
2022/12/28 07:08:07;;;;;;;10.27;5.80;;;;;;;;;;5165366;27;20038;-68
2022/12/28 07:10:33;;;;;;;10.43;5.50;;;;;;;;;;5159746;27;20427;-68
2022/12/28 07:12:59;;;;;;;8.80;5.40;;;;;;;;;;5152371;27;20458;-68
2022/12/28 07:15:25;;;;;;;9.43;5.72;;;;;;;;;;5152301;27;20022;-68
2022/12/28 07:17:50;;;;;;;8.77;5.55;;;;;;;;;;5152308;27;20027;-68
2022/12/28 07:20:15;;;;;;;9.70;5.22;;;;;;;;;;5152064;27;20070;-68
2022/12/28 07:22:41;;;;;;;9.40;5.13;;;;;;;;;;5152050;27;20046;-69
2022/12/28 07:25:07;;;;;;;8.98;4.80;;;;;;;;;;5152053;27;20046;-68
2022/12/28 07:27:33;;;;;;;8.88;5.07;;;;;;;;;;5151747;27;20063;-72
2022/12/28 07:29:59;;;;;;;10.68;5.30;;;;;;;;;;5151851;27;20041;-67
2022/12/28 07:32:24;;;;;;;9.05;5.47;;;;;;;;;;5151890;27;20026;-68
2022/12/28 07:34:50;;;;;;;9.18;5.50;;;;;;;;;;5151806;27;20037;-68
2022/12/28 07:37:15;;;;;;;9.18;5.13;;;;;;;;;;5151672;27;20019;-68
2022/12/28 07:39:40;;;;;;;8.15;4.95;;;;;;;;;;5151987;27;20101;-69
2022/12/28 07:42:09;;;;;;;10.15;5.30;;;;;;;;;;5151875;27;20042;-68
2022/12/28 07:44:35;;;;;;;11.73;5.50;;;;;;;;;;5151790;27;20043;-68
2022/12/28 07:47:00;;;;;;;8.82;5.18;;;;;;;;;;5151460;27;20142;-70
2022/12/28 07:49:26;;;;;;;9.60;5.28;;;;;;;;;;5151726;27;20122;-68
2022/12/28 07:51:51;;;;;;;8.48;5.13;;;;;;;;;;5151904;27;20031;-69
2022/12/28 07:54:16;;;;;;;8.68;5.25;;;;;;;;;;5151763;27;20060;-68
2022/12/28 07:56:42;;;;;;;9.18;4.82;;;;;;;;;;5151608;27;20023;-73
2022/12/28 07:59:09;;;;;;;11.75;5.45;;;;;;;;;;5151860;27;20062;-69
2022/12/28 08:01:35;;;;;;;10.00;5.75;;;;;;;;;;5151628;27;20029;-71
2022/12/28 08:04:03;;;;;;;11.13;5.80;;;;;;;;;;5151459;27;20064;-68
2022/12/28 08:06:31;;;;;;;11.10;6.03;;;;;;;;;;5151294;27;20034;-69
2022/12/28 08:08:59;;;;;;;13.55;7.20;;;;;;;;;;5151652;27;20023;-69
2022/12/28 08:11:28;;;;;;;12.90;6.80;;;;;;;;;;5151737;27;20030;-74
2022/12/28 08:13:54;;;;;;;12.57;7.10;;;;;;;;;;5151962;27;20379;-75
2022/12/28 08:16:21;;;;;;;17.02;6.90;;;;;;;;;;5151436;27;20420;-76
2022/12/28 08:18:47;;;;;;;16.73;7.20;;;;;;;;;;5153833;27;20100;-74
2022/12/28 08:21:14;;;;;;;13.93;8.30;;;;;;;;;;5155157;27;20026;-77
2022/12/28 08:23:40;;;;;;;13.85;8.07;;;;;;;;;;5155268;27;20026;-74
2022/12/28 08:26:10;;;;;;;15.60;7.90;;;;;;;;;;5154897;27;20033;-74
2022/12/28 08:28:37;;;;;;;14.20;8.07;;;;;;;;;;5155322;27;20031;-73
2022/12/28 08:31:15;;;;;;;14.82;8.10;;;;;;;;;;5155252;27;20265;-75
2022/12/28 08:33:40;;;;;;;14.20;8.25;;;;;;;;;;5154982;27;20026;-74
2022/12/28 08:36:08;;;;;;;20.05;8.65;;;;;;;;;;5154976;27;20025;-75
2022/12/28 08:38:33;;;;;;;18.33;8.63;;;;;;;;;;5154820;27;20762;-75
2022/12/28 08:41:02;;;;;;;16.67;8.82;;;;;;;;;;5154928;27;20097;-74
2022/12/28 08:43:28;;;;;;;15.35;8.05;;;;;;;;;;5154631;27;20486;-74
2022/12/28 08:46:17;;;;;;;15.02;8.13;;;;;;;;;;5154776;27;20477;-76
2022/12/28 08:48:44;;;;;;;17.38;8.63;;;;;;;;;;5154740;27;20061;-77
2022/12/28 08:51:12;;;;;;;18.90;9.10;;;;;;;;;;5154930;27;20034;-74
2022/12/28 08:53:38;;;;;;;16.48;9.38;;;;;;;;;;5153194;27;20023;-76
2022/12/28 08:56:12;;;;;;;16.20;8.68;;;;;;;;;;5154498;27;20389;-76
2022/12/28 08:58:39;;;;;;;15.70;8.68;;;;;;;;;;5154374;27;20045;-75
2022/12/28 09:01:11;;;;;;;15.48;8.18;;;;;;;;;;5154620;27;20019;-73
2022/12/28 09:03:38;;;;;;;18.40;8.80;;;;;;;;;;5154475;27;20048;-78
2022/12/28 09:06:07;;;;;;;15.05;8.38;;;;;;;;;;5154138;27;20027;-76
2022/12/28 09:08:32;;;;;;;14.48;8.02;;;;;;;;;;5154582;27;20490;-70
2022/12/28 09:11:03;;;;;;;15.15;7.53;;;;;;;;;;5154388;27;20109;-69
2022/12/28 09:13:29;;;;;;;15.25;8.02;;;;;;;;;;5152939;27;20463;-70
2022/12/28 09:15:59;;;;;;;13.23;6.93;;;;;;;;;;5154055;27;20470;-76
2022/12/28 09:18:25;;;;;;;13.02;6.95;;;;;;;;;;5154238;27;20023;-75
2022/12/28 09:20:51;;;;;;;13.15;7.03;;;;;;;;;;5154433;27;20470;-68
2022/12/28 09:23:16;;;;;;;12.98;6.93;;;;;;;;;;5154290;27;20034;-72
2022/12/28 09:25:42;;;;;;;11.73;6.25;;;;;;;;;;5153938;27;20087;-75
2022/12/28 09:28:07;;;;;;;11.93;6.32;;;;;;;;;;5153845;27;20087;-72
2022/12/28 09:30:32;;;;;;;11.20;6.40;;;;;;;;;;5152679;27;20586;-75
2022/12/28 09:35:41;;;;;;;10.18;5.70;;;;;;;;;;5153956;27;20034;-72
2022/12/28 09:38:07;;;;;;;11.93;6.32;;;;;;;;;;5152349;27;20039;-68
2022/12/28 09:40:36;;;;;;;11.68;6.25;;;;;;;;;;5153951;27;20534;-69
2022/12/28 09:43:03;;;;;;;11.63;5.82;;;;;;;;;;5153643;27;20041;-68
2022/12/28 09:45:30;;;;;;;11.48;5.97;;;;;;;;;;5153580;27;20034;-68
2022/12/28 09:48:06;;;;;;;11.18;6.15;;;;;;;;;;5153231;27;20030;-68
2022/12/28 09:50:34;;;;;;;11.27;6.07;;;;;;;;;;5160920;27;20562;-69
2022/12/28 09:53:05;;;;;;;12.93;6.38;;;;;;;;;;5169568;27;20071;-71
2022/12/28 09:55:33;;;;;;;10.73;6.18;;;;;;;;;;5159152;27;20099;-68
2022/12/28 09:58:01;;;;;;;10.80;6.15;;;;;;;;;;5153501;27;20069;-68
2022/12/28 10:00:40;;;;;;;10.93;6.28;;;;;;;;;;5153481;27;20058;-72
2022/12/28 10:03:20;;;;;;;12.80;6.57;;;;;;;;;;5151811;27;20027;-69
2022/12/28 10:05:46;;;;;;;12.67;6.67;;;;;;;;;;5152902;27;20026;-69
2022/12/28 10:08:15;;;;;;;12.05;6.93;;;;;;;;;;5152802;27;20264;-68
2022/12/28 10:10:42;;;;;;;14.82;6.88;;;;;;;;;;5153172;27;20026;-67
2022/12/28 10:13:14;;;;;;;12.70;6.32;;;;;;;;;;5153081;27;20057;-68
2022/12/28 10:15:40;;;;;;;13.50;5.97;;;;;;;;;;5153105;27;20034;-69
2022/12/28 10:18:05;;;;;;;11.68;6.32;;;;;;;;;;5152684;27;20027;-68
2022/12/28 10:20:31;;;;;;;14.38;6.45;;;;;;;;;;5152982;27;20027;-71
2022/12/28 10:22:59;;;;;;;12.13;6.47;;;;;;;;;;5153063;27;20109;-69
2022/12/28 10:25:25;;;;;;;14.20;6.63;;;;;;;;;;5152977;27;20110;-68
2022/12/28 10:27:52;;;;;;;10.45;5.90;;;;;;;;;;5152681;27;20036;-69
2022/12/28 10:30:22;;;;;;;10.77;6.07;;;;;;;;;;5152660;27;20015;-72
2022/12/28 10:32:54;;;;;;;12.25;6.00;;;;;;;;;;5153031;27;20023;-69
2022/12/28 10:35:27;;;;;;;10.00;5.75;;;;;;;;;;5152759;27;20034;-70
2022/12/28 10:38:17;;;;;;;11.88;6.10;;;;;;;;;;5152419;27;20600;-68
2022/12/28 10:40:42;;;;;;;12.55;5.97;;;;;;;;;;5152295;27;20033;-68
2022/12/28 10:43:18;;;;;;;11.52;6.15;;;;;;;;;;5152184;27;20146;-69
2022/12/28 10:45:50;;;;;;;11.55;6.25;;;;;;;;;;5152494;27;20018;-68
2022/12/28 10:48:27;;;;;;;10.43;5.65;;;;;;;;;;5152187;27;20474;-68
2022/12/28 10:50:59;;;;;;;12.68;6.13;;;;;;;;;;5152575;27;20071;-68
2022/12/28 10:53:25;;;;;;;11.45;6.13;;;;;;;;;;5152584;27;20033;-69
2022/12/28 10:56:30;;;;;;;11.65;5.72;;;;;;;;;;5152489;27;20037;-68
2022/12/28 10:59:10;;;;;;;12.77;5.78;;;;;;;;;;5119961;27;20035;-69
2022/12/28 11:01:36;;;;;;;10.50;5.30;;;;;;;;;;5152334;27;20058;-74
2022/12/28 11:04:07;;;;;;;11.27;5.97;;;;;;;;;;5152064;27;20061;-68
2022/12/28 11:06:34;;;;;;;9.93;5.88;;;;;;;;;;5152059;27;20034;-70
2022/12/28 11:09:13;;;;;;;11.30;6.07;;;;;;;;;;5152197;27;20050;-69
2022/12/28 11:11:40;;;;;;;10.95;5.43;;;;;;;;;;5152182;27;20151;-76
2022/12/28 11:14:17;;;;;;;11.38;6.03;;;;;;;;;;5152116;27;20072;-68
2022/12/28 11:16:43;;;;;;;12.43;6.07;;;;;;;;;;5151942;27;20023;-68
2022/12/28 11:19:11;;;;;;;12.68;6.13;;;;;;;;;;5151809;27;20027;-68
2022/12/28 11:21:37;;;;;;;13.00;6.00;;;;;;;;;;5152058;27;20018;-69
2022/12/28 11:24:03;;;;;;;10.70;5.93;;;;;;;;;;5152156;27;20034;-68
2022/12/28 11:26:30;;;;;;;11.85;5.40;;;;;;;;;;5152139;27;20031;-68
2022/12/28 11:28:56;;;;;;;11.10;5.55;;;;;;;;;;5151818;27;20050;-68
2022/12/28 11:31:30;;;;;;;9.77;5.50;;;;;;;;;;5152142;27;20051;-77
2022/12/28 11:34:02;;;;;;;8.25;5.18;;;;;;;;;;5151702;27;20019;-76
2022/12/28 11:36:29;;;;;;;9.90;4.95;;;;;;;;;;5151918;27;20018;-71
2022/12/28 11:38:55;;;;;;;9.82;5.78;;;;;;;;;;5152060;27;20027;-75
2022/12/28 11:41:23;;;;;;;10.00;5.80;;;;;;;;;;5151879;27;20026;-75
2022/12/28 11:43:49;;;;;;;8.93;5.18;;;;;;;;;;5151872;27;20073;-76
2022/12/28 11:46:20;;;;;;;9.57;5.00;;;;;;;;;;5151886;27;20058;-75
2022/12/28 11:48:57;;;;;;;9.63;5.30;;;;;;;;;;5151564;27;20027;-68
2022/12/28 11:51:30;;;;;;;10.13;4.43;;;;;;;;;;5151604;27;20026;-69
2022/12/28 11:54:03;;;;;;;7.47;4.40;;;;;;;;;;5154748;27;20018;-68
2022/12/28 11:56:43;;;;;;;10.32;4.68;;;;;;;;;;5155954;27;20061;-69
2022/12/28 11:59:27;;;;;;;9.38;4.47;;;;;;;;;;5155608;27;20027;-69
2022/12/28 12:02:00;;;;;;;11.30;4.63;;;;;;;;;;5155770;27;20066;-70
2022/12/28 12:04:33;;;;;;;7.75;4.35;;;;;;;;;;5155562;27;20467;-68
2022/12/28 12:07:00;;;;;;;9.45;4.22;;;;;;;;;;5155298;27;20040;-70
2022/12/28 12:09:33;;;;;;;9.98;4.93;;;;;;;;;;5155519;27;20027;-76
2022/12/28 12:12:04;;;;;;;8.95;4.07;;;;;;;;;;5155609;27;20550;-69
2022/12/28 12:14:33;;;;;;;9.75;4.53;;;;;;;;;;5155409;27;20022;-71
2022/12/28 12:17:02;;;;;;;11.93;4.50;;;;;;;;;;5155675;27;20019;-74
2022/12/28 12:19:32;;;;;;;8.02;4.30;;;;;;;;;;5154911;27;20035;-70
2022/12/28 12:22:08;;;;;;;9.23;4.53;;;;;;;;;;5155770;27;20015;-68
2022/12/28 12:24:48;;;;;;;7.50;4.40;;;;;;;;;;5156758;27;20046;-69
2022/12/28 12:27:19;;;;;;;8.93;4.40;;;;;;;;;;5155469;27;20018;-73
2022/12/28 12:29:49;;;;;;;;;;;;;;;;;;5155533;27;20038;-68
2022/12/28 12:32:25;;;;;;;8.20;4.13;;;;;;;;;;5155342;27;19933;-68
2022/12/28 12:35:03;;;;;;;7.88;4.28;;;;;;;;;;5155464;27;20644;-76
2022/12/28 12:37:40;;;;;;;9.35;4.47;;;;;;;;;;5160883;27;20473;-70
2022/12/28 12:40:26;;;;;;;8.77;4.43;;;;;;;;;;5169611;27;20079;-72
2022/12/28 12:43:22;;;;;;;7.70;3.97;;;;;;;;;;5157609;27;20569;-76
2022/12/28 12:46:06;;;;;;;12.02;4.80;;;;;;;;;;5154923;27;20034;-72
2022/12/28 12:48:41;;;;;;;10.13;4.45;;;;;;;;;;5153216;27;20022;-74
2022/12/28 12:51:20;;;;;;;9.27;4.50;;;;;;;;;;5155041;27;20022;-77
2022/12/28 12:54:11;;;;;;;7.57;4.18;;;;;;;;;;5154651;27;20066;-72
2022/12/28 12:57:12;;;;;;;7.30;4.10;;;;;;;;;;5154720;27;20461;-73
2022/12/28 12:59:54;;;;;;;9.20;4.40;;;;;;;;;;5154477;27;20113;-76
2022/12/28 13:02:52;;;;;;;7.93;4.13;;;;;;;;;;5154332;27;20501;-75
2022/12/28 13:05:23;;;;;;;11.13;4.03;;;;;;;;;;5154275;27;20097;-74
2022/12/28 13:07:49;;;;;;;7.47;3.83;;;;;;;;;;5154154;27;20051;-76
2022/12/28 13:10:22;;;;;;;10.48;4.00;;;;;;;;;;5154417;27;20058;-75
2022/12/28 13:12:48;;;;;;;7.10;3.65;;;;;;;;;;5154501;27;20097;-75
2022/12/28 13:15:17;;;;;;;7.78;3.97;;;;;;;;;;5154315;27;20443;-69
2022/12/28 13:18:04;;;;;;;7.40;4.22;;;;;;;;;;5154003;27;20558;-69
2022/12/28 13:20:31;;;;;;;9.07;3.90;;;;;;;;;;5154050;27;20026;-72
2022/12/28 13:22:59;;;;;;;9.20;3.88;;;;;;;;;;5153994;27;20581;-69
2022/12/28 13:25:33;;;;;;;9.32;4.03;;;;;;;;;;5154197;27;20030;-69
2022/12/28 13:28:01;;;;;;;8.02;4.03;;;;;;;;;;5153785;27;20030;-68
2022/12/28 13:30:28;;;;;;;7.63;3.65;;;;;;;;;;5153914;27;20109;-70
2022/12/28 13:32:56;;;;;;;6.97;3.72;;;;;;;;;;5153880;27;20038;-67
2022/12/28 13:35:32;;;;;;;9.30;4.10;;;;;;;;;;5153599;27;20035;-71
2022/12/28 13:38:14;;;;;;;10.30;3.97;;;;;;;;;;5153538;27;20046;-71
2022/12/28 13:40:49;;;;;;;7.95;4.05;;;;;;;;;;5153673;27;20037;-69
2022/12/28 13:43:23;;;;;;;6.75;3.92;;;;;;;;;;5153401;27;20598;-69
2022/12/28 13:45:59;;;;;;;8.38;3.67;;;;;;;;;;5153629;27;20034;-69
2022/12/28 13:48:26;;;;;;;8.85;3.90;;;;;;;;;;5153638;27;20019;-68
2022/12/28 13:50:52;;;;;;;6.63;3.55;;;;;;;;;;5153818;27;20687;-68
2022/12/28 13:53:24;;;;;;;7.68;3.80;;;;;;;;;;5153595;27;20046;-68
2022/12/28 13:55:56;;;;;;;6.95;3.75;;;;;;;;;;5153376;27;20106;-69
2022/12/28 13:58:33;;;;;;;8.43;3.75;;;;;;;;;;5153106;27;20018;-68
2022/12/28 14:01:02;;;;;;;5.88;3.30;;;;;;;;;;5153328;27;20079;-69
2022/12/28 14:03:29;;;;;;;6.13;3.33;;;;;;;;;;5153367;27;20023;-68
2022/12/28 14:06:00;;;;;;;5.80;3.25;;;;;;;;;;5153219;27;20065;-67
2022/12/28 14:08:28;;;;;;;4.93;3.17;;;;;;;;;;5153059;27;20042;-68
2022/12/28 14:10:54;;;;;;;7.60;3.20;;;;;;;;;;5153120;27;20106;-67
2022/12/28 14:13:21;;;;;;;6.97;3.30;;;;;;;;;;5152948;27;20058;-68
2022/12/28 14:15:47;;;;;;;7.30;3.60;;;;;;;;;;5152699;27;20052;-68
2022/12/28 14:18:15;;;;;;;5.47;3.40;;;;;;;;;;5152741;27;20053;-68
2022/12/28 14:20:53;;;;;;;6.03;3.30;;;;;;;;;;5153121;27;20035;-67
2022/12/28 14:23:22;;;;;;;6.72;3.85;;;;;;;;;;5151676;27;20023;-67
2022/12/28 14:25:49;;;;;;;7.82;3.83;;;;;;;;;;5152992;27;20063;-68
2022/12/28 14:28:35;;;;;;;8.95;4.05;;;;;;;;;;5152672;27;20022;-69
2022/12/28 14:31:03;;;;;;;8.90;3.85;;;;;;;;;;5152637;27;20082;-67
2022/12/28 14:33:33;;;;;;;7.20;3.38;;;;;;;;;;5152394;27;20037;-67
2022/12/28 14:36:01;;;;;;;9.27;3.72;;;;;;;;;;5152664;27;20393;-67
2022/12/28 14:38:46;;;;;;;7.35;3.95;;;;;;;;;;5152573;27;20023;-69
2022/12/28 14:41:19;;;;;;;6.18;3.83;;;;;;;;;;5152635;27;20026;-69
2022/12/28 14:43:52;;;;;;;8.35;3.75;;;;;;;;;;5152233;27;20127;-69
2022/12/28 14:46:27;;;;;;;8.50;3.88;;;;;;;;;;5152334;27;20118;-68
2022/12/28 14:48:52;;;;;;;9.88;3.95;;;;;;;;;;5151925;27;20104;-69
2022/12/28 14:51:30;;;;;;;8.93;3.90;;;;;;;;;;5152437;27;20023;-70
2022/12/28 14:54:10;;;;;;;8.02;4.00;;;;;;;;;;5152288;27;20105;-69
2022/12/28 14:56:37;;;;;;;9.27;3.63;;;;;;;;;;5152536;27;20431;-68
2022/12/28 14:59:02;;;;;;;7.88;3.65;;;;;;;;;;5152217;27;20058;-68
2022/12/28 15:01:43;;;;;;;6.55;3.53;;;;;;;;;;5152338;27;20509;-69
2022/12/28 15:04:39;;;;;;;8.25;3.72;;;;;;;;;;5152053;27;20030;-68
2022/12/28 15:07:06;;;;;;;8.68;3.88;;;;;;;;;;5151809;27;20509;-69
2022/12/28 15:09:32;;;;;;;7.45;3.80;;;;;;;;;;5151982;27;20119;-69
2022/12/28 15:12:10;;;;;;;7.47;3.60;;;;;;;;;;5152165;27;20490;-71
2022/12/28 15:14:36;;;;;;;7.05;3.63;;;;;;;;;;5152154;27;20026;-71
2022/12/28 15:17:01;;;;;;;9.35;3.75;;;;;;;;;;5152107;27;20488;-69
2022/12/28 15:19:27;;;;;;;6.80;3.38;;;;;;;;;;5151713;27;20050;-69
2022/12/28 15:21:52;;;;;;;7.03;4.13;;;;;;;;;;5151909;27;20448;-69
2022/12/28 15:24:17;;;;;;;7.55;3.83;;;;;;;;;;5151904;27;20044;-69